Terminal Aerodrome Forecast
Issued by NWS

Home | Current Version | Previous Version | Text Only | Print | Product List | Glossary On
Versions: 1 2 3 4 5 6 7 8 9 10 11 12 13 14 15 16 17 18
000
FTUS43 KIND 041858 AAA
TAFLAF
TAF AMD
KLAF 041858Z 0419/0518 07006KT 2SM -RA BR OVC025
     FM042000 11005KT 1 1/2SM RA OVC008
     FM042100 11005KT 1/2SM RASN OVC003
     FM050000 18004KT P6SM OVC003
     FM050600 27006KT P6SM BKN010
     FM050800 27005KT P6SM BKN008
     FM051400 20005KT P6SM BKN008
     FM051600 19005KT P6SM BKN010=

USA.gov is the U.S. government's official web portal to all federal, state and local government web resources and services.